메인 페이지
METAR-TAF:

METAR-TAF

공항 :

라르나카 국제공항

라르나카, 키프로스

위도: 34-53N, 경도: 033-38E, 고도: 2m

현재 날씨관측

예보는 16분 전, 15:00시(UTC)에 발표되었습니다.
남남서1kt
온도 27°C
습도 51%
기압 1017 hPa
시정 10km 이상
고도 2500ft 상공 구름 조금

METAR: LCLK 221500Z 21001KT 9999 FEW025 27/16 Q1017 NOSIG

시각: 18:16 (15:16 UTC)

예보

예보는 3 시간 39분 전, 11:37시(UTC)에 발표되었습니다.
예보 대상 시간: 22일 12시부터 23일 12시까지 (UTC)
10kt
시정 10km 이상
고도 3000ft 상공 구름 조금
전환 중
22일 15시부터 22일 18시까지 (UTC)
북북서8kt
전환 중
23일 08시부터 23일 11시까지 (UTC)
10kt

TAF: LCLK 221137Z 2212/2312 18010KT 9999 FEW030 BECMG 2215/2218 34008KT BECMG 2308/2311 08010KT

4,000개 이상의 공항 관측 자료 및 예보 (METAR 및 TAF 보고).

지도상에서 검색 가능한 기상관측소가 노란 점과 빨간 점으로 표시되어 있습니다.

기상관측소 명을 보려면 표시 위로 마우스를 이동하세요.

날씨 관측과 예보를 보려면 클릭하세요.

지도 변경 : 확대하려면 엑스 표시가 있는 녹색 버튼, 축소하려면 빼기 표시가 있는 녹색 버튼, 다음 페이지의 지도를 보려면 녹색 화살표를 클릭하세요.


METAR-TAF: